Aviation Digital Data Service (ADDS)

Output produced by METARs form (1207 UTC 15 December 2017)
found at http://aviationweather.gov/adds/metars/
 
KARA 151153Z 02011KT 10SM CLR 09/03 A3012 RMK AO2 SLP199 T00940028 10111 20094 53012